Time;durP1;ratioP1;P1;durP2;ratioP2;P2;SDS_P1;SDS_P2;PMS_P1;PMS_P2;Temp;Humidity;BMP_temperature;BMP_pressure;BME280_temperature;BME280_humidity;BME280_pressure;Samples;Min_cycle;Max_cycle;Signal;HPM_P1;HPM_P2
2023/04/05 00:04:20;;;;;;;0.10;0.10;;;;;;;-145.06;100.00;98206.97;10386813;28;20321;-79
2023/04/05 00:09:21;;;;;;;0.10;0.10;;;;;;;-145.06;100.00;98168.06;10364305;28;20018;-79
2023/04/05 00:14:21;;;;;;;0.15;0.15;;;;;;;-145.06;100.00;98168.06;10386605;28;20401;-80
2023/04/05 00:19:23;;;;;;;0.10;0.10;;;;;;;-145.06;100.00;98256.13;10401611;28;20773;-79
2023/04/05 00:24:24;;;;;;;0.10;0.10;;;;;;;-145.06;100.00;98262.25;10383622;28;20029;-79
2023/04/05 00:29:25;;;;;;;0.10;0.10;;;;;;;-145.06;100.00;98299.13;10385195;28;20486;-78
2023/04/05 00:34:25;;;;;;;0.10;0.10;;;;;;;-145.06;100.00;98303.22;10373841;28;20076;-80
2023/04/05 00:39:26;;;;;;;0.10;0.10;;;;;;;-145.06;100.00;98315.50;10389178;28;20048;-80
2023/04/05 00:44:27;;;;;;;0.10;0.10;;;;;;;-145.06;100.00;98342.13;10392264;28;20029;-80
2023/04/05 00:49:30;;;;;;;0.10;0.10;;;;;;;-145.06;100.00;98286.84;10378939;28;20024;-79
2023/04/05 00:54:31;;;;;;;0.20;0.20;;;;;;;-145.06;100.00;98292.97;10397731;28;20021;-80
2023/04/05 00:59:32;;;;;;;0.00;0.00;;;;;;;-145.06;100.00;98297.06;10371267;28;20506;-80
2023/04/05 01:04:35;;;;;;;0.17;0.17;;;;;;;-145.06;100.00;98292.97;10392949;28;20112;-80
2023/04/05 01:09:39;;;;;;;0.20;0.20;;;;;;;-145.06;100.00;98321.66;10401373;28;20276;-79
2023/04/05 01:14:49;;;;;;;0.20;0.20;;;;;;;-145.06;100.00;98309.38;10383869;28;20026;-80
2023/04/05 01:19:52;;;;;;;0.10;0.10;;;;;;;-145.06;100.00;98233.59;10364075;28;20048;-79
2023/04/05 01:25:18;;;;;;;0.20;0.20;;;;;;;-145.06;100.00;98274.56;10383195;28;20092;-79
2023/04/05 01:30:23;;;;;;;0.10;0.10;;;;;;;-145.06;100.00;98307.31;10379976;28;20485;-80
2023/04/05 01:35:43;;;;;;;0.20;0.20;;;;;;;-145.06;100.00;98301.16;10387066;28;20432;-79
2023/04/05 01:40:44;;;;;;;0.17;0.17;;;;;;;-145.06;100.00;98280.69;10382379;28;20030;-79
2023/04/05 01:45:46;;;;;;;0.10;0.10;;;;;;;-145.06;100.00;98278.66;10387777;28;20037;-79
2023/04/05 01:50:46;;;;;;;0.15;0.15;;;;;;;-145.06;100.00;98290.94;10369504;28;20026;-79
2023/04/05 01:55:46;;;;;;;0.20;0.20;;;;;;;-145.06;100.00;98327.78;10391433;28;20544;-79
2023/04/05 02:00:46;;;;;;;0.10;0.10;;;;;;;-145.06;100.00;98327.78;10381880;28;20355;-79
2023/04/05 02:05:47;;;;;;;0.20;0.20;;;;;;;-145.06;100.00;98335.97;10393292;28;20032;-78
2023/04/05 02:10:47;;;;;;;0.10;0.10;;;;;;;-145.06;100.00;98333.94;10369989;28;20075;-80
2023/04/05 02:15:49;;;;;;;0.20;0.20;;;;;;;-145.06;100.00;98344.16;10384720;28;20261;-81
2023/04/05 02:20:50;;;;;;;0.13;0.13;;;;;;;-145.06;100.00;98397.41;10380911;28;20273;-80
2023/04/05 02:25:50;;;;;;;0.20;0.20;;;;;;;-145.06;100.00;98422.00;10393482;28;20021;-80
2023/04/05 02:30:50;;;;;;;0.10;0.10;;;;;;;-145.06;100.00;98378.97;10394635;28;20080;-79
2023/04/05 02:35:52;;;;;;;0.20;0.20;;;;;;;-145.06;100.00;98403.56;10385281;28;20018;-81
2023/04/05 02:40:52;;;;;;;0.10;0.10;;;;;;;-145.06;100.00;98397.41;10384136;28;20404;-80
2023/04/05 02:45:53;;;;;;;0.10;0.10;;;;;;;-145.06;100.00;98411.75;10389091;28;20034;-78
2023/04/05 02:50:54;;;;;;;0.20;0.20;;;;;;;-145.06;100.00;98411.75;10387464;28;20037;-80
2023/04/05 02:55:56;;;;;;;0.20;0.20;;;;;;;-145.06;100.00;98471.13;10382881;28;20021;-80
2023/04/05 03:00:56;;;;;;;0.20;0.20;;;;;;;-145.06;100.00;98475.22;10373916;28;20021;-79
2023/04/05 03:06:08;;;;;;;0.10;0.10;;;;;;;-145.06;100.00;98399.47;10377453;28;20056;-79
2023/04/05 03:11:10;;;;;;;0.10;0.10;;;;;;;-145.06;100.00;98438.38;10387694;28;20271;-80
2023/04/05 03:16:11;;;;;;;0.15;0.15;;;;;;;-145.06;100.00;98424.03;10399779;28;20022;-79
2023/04/05 03:21:11;;;;;;;0.10;0.10;;;;;;;-145.06;100.00;98422.00;10376080;28;20090;-79
2023/04/05 03:26:13;;;;;;;0.20;0.20;;;;;;;-145.06;100.00;98452.72;10362210;28;20060;-79
2023/04/05 03:31:13;;;;;;;0.20;0.20;;;;;;;-145.06;100.00;98434.28;10384540;28;20109;-79
2023/04/05 03:36:15;;;;;;;0.20;0.20;;;;;;;-145.06;100.00;98426.09;10371707;28;20696;-78
2023/04/05 03:41:15;;;;;;;0.20;0.20;;;;;;;-145.06;100.00;98411.75;10392254;28;20075;-78
2023/04/05 03:46:15;;;;;;;0.20;0.20;;;;;;;-145.06;100.00;98409.69;10382286;28;20014;-78
2023/04/05 03:51:17;;;;;;;0.10;0.10;;;;;;;-145.06;100.00;98405.59;10378370;28;20303;-79
2023/04/05 03:56:18;;;;;;;0.10;0.10;;;;;;;-145.06;100.00;98389.22;10378806;28;20108;-79
2023/04/05 04:01:18;;;;;;;0.20;0.20;;;;;;;-145.06;100.00;98368.75;10358764;28;20507;-82
2023/04/05 04:06:19;;;;;;;0.20;0.20;;;;;;;-145.06;100.00;98358.50;10361512;28;20098;-81
2023/04/05 04:11:19;;;;;;;0.13;0.13;;;;;;;-145.06;100.00;98366.69;10380414;28;20257;-80
2023/04/05 04:16:20;;;;;;;0.20;0.20;;;;;;;-145.06;100.00;98348.28;10376258;28;20034;-81
2023/04/05 04:21:23;;;;;;;0.20;0.20;;;;;;;-145.06;100.00;98372.84;10327479;28;1045270;-79
2023/04/05 04:26:27;;;;;;;0.20;0.20;;;;;;;-145.06;100.00;98387.19;10386945;28;20384;-81
2023/04/05 04:31:28;;;;;;;0.10;0.10;;;;;;;-145.06;100.00;98381.03;10376791;28;20018;-80
2023/04/05 04:36:33;;;;;;;0.20;0.20;;;;;;;-145.06;100.00;98358.50;10386562;28;20018;-81
2023/04/05 04:41:34;;;;;;;0.10;0.10;;;;;;;-145.06;100.00;98381.03;10392430;28;20030;-81
2023/04/05 04:46:41;;;;;;;0.20;0.20;;;;;;;-145.06;100.00;98352.38;10390305;28;20049;-80
2023/04/05 04:51:42;;;;;;;0.20;0.20;;;;;;;-145.06;100.00;97701.22;10389099;28;20105;-80
2023/04/05 04:56:42;;;;;;;0.20;0.20;;;;;;;-145.06;100.00;96403.38;10375253;28;20077;-79
2023/04/05 05:01:45;;;;;;;0.10;0.10;;;;;;;-145.06;100.00;96745.19;10408443;28;20028;-80
2023/04/05 05:06:49;;;;;;;0.20;0.20;;;;;;;-145.06;100.00;98231.56;10394891;28;20278;-78
2023/04/05 05:11:49;;;;;;;0.10;0.10;;;;;;;-145.06;100.00;98065.69;10383222;28;20034;-80
2023/04/05 05:16:49;;;;;;;0.13;0.13;;;;;;;-145.06;100.00;97850.69;10366992;28;20067;-79
2023/04/05 05:21:52;;;;;;;0.10;0.10;;;;;;;-145.06;100.00;97451.44;10362357;28;20042;-80
2023/04/05 05:26:52;;;;;;;0.10;0.10;;;;;;;-145.06;100.00;97242.63;10382400;28;20281;-80
2023/04/05 05:31:52;;;;;;;0.20;0.20;;;;;;;-145.06;100.00;97074.75;10376444;28;20401;-80
2023/04/05 05:36:54;;;;;;;0.20;0.20;;;;;;;-145.06;100.00;97056.34;10385350;28;20273;-80
2023/04/05 05:41:54;;;;;;;0.10;0.10;;;;;;;-145.06;100.00;96945.81;10393984;28;20033;-79
2023/04/05 05:46:55;;;;;;;0.20;0.20;;;;;;;-145.06;100.00;96913.03;10394823;28;20579;-79
2023/04/05 05:51:56;;;;;;;0.10;0.10;;;;;;;-145.06;100.00;96833.22;10390469;28;20029;-79
2023/04/05 05:56:56;;;;;;;0.10;0.10;;;;;;;-145.06;100.00;96853.69;10389288;28;20385;-79
2023/04/05 06:01:56;;;;;;;0.00;0.00;;;;;;;-145.06;100.00;96851.63;10387722;28;20073;-79
2023/04/05 06:06:59;;;;;;;0.10;0.10;;;;;;;-145.06;100.00;96874.16;10389350;28;20025;-79
2023/04/05 06:12:00;;;;;;;0.20;0.20;;;;;;;-145.06;100.00;96847.53;10366174;28;20021;-79
2023/04/05 06:17:00;;;;;;;0.00;0.00;;;;;;;-145.06;100.00;96845.50;10369149;28;20018;-80
2023/04/05 06:22:01;;;;;;;0.20;0.20;;;;;;;-145.06;100.00;96851.63;10386887;28;20084;-80
2023/04/05 06:27:01;;;;;;;0.00;0.00;;;;;;;-145.06;100.00;96827.06;10390845;28;20022;-79
2023/04/05 06:32:01;;;;;;;0.10;0.10;;;;;;;-145.06;100.00;96775.91;10386417;28;20053;-79
2023/04/05 06:37:02;;;;;;;0.10;0.10;;;;;;;-145.06;100.00;96734.97;10383513;28;20093;-80
2023/04/05 06:42:02;;;;;;;0.10;0.10;;;;;;;-145.06;100.00;96689.94;10377714;28;20085;-78
2023/04/05 06:47:03;;;;;;;0.00;0.00;;;;;;;-145.06;100.00;96632.63;10385596;28;20054;-80
2023/04/05 06:52:05;;;;;;;0.10;0.10;;;;;;;-145.06;100.00;96558.91;10388712;28;20276;-82
2023/04/05 06:57:05;;;;;;;0.05;0.05;;;;;;;-145.06;100.00;96560.97;10393700;28;20018;-82
2023/04/05 07:02:06;;;;;;;0.00;0.00;;;;;;;-145.06;100.00;96577.34;10392476;28;20017;-81
2023/04/05 07:07:06;;;;;;;0.00;0.00;;;;;;;-145.06;100.00;96524.13;10380576;28;20030;-80
2023/04/05 07:12:07;;;;;;;0.10;0.10;;;;;;;-145.06;100.00;96542.53;10351835;28;20363;-81
2023/04/05 07:17:07;;;;;;;0.00;0.00;;;;;;;-145.06;100.00;96556.88;10361059;28;20061;-80
2023/04/05 07:22:08;;;;;;;0.00;0.00;;;;;;;-145.06;100.00;96567.09;10377107;28;20090;-79
2023/04/05 07:27:08;;;;;;;0.00;0.00;;;;;;;-145.06;100.00;96563.00;10385342;28;20021;-81
2023/04/05 07:32:09;;;;;;;0.05;0.05;;;;;;;-145.06;100.00;96542.53;10359088;28;20121;-79
2023/04/05 07:37:09;;;;;;;0.00;0.00;;;;;;;-145.06;100.00;96536.41;10387508;28;20042;-80
2023/04/05 07:42:10;;;;;;;0.00;0.00;;;;;;;-145.06;100.00;96485.25;10386682;28;20260;-81
2023/04/05 07:47:10;;;;;;;0.00;0.00;;;;;;;-145.06;100.00;96472.97;10385609;28;20022;-78
2023/04/05 07:52:10;;;;;;;0.00;0.00;;;;;;;-145.06;100.00;96446.34;10390201;28;20085;-78
2023/04/05 07:57:18;;;;;;;0.00;0.00;;;;;;;-145.06;100.00;96378.81;10378330;28;20026;-79
2023/04/05 08:02:18;;;;;;;0.00;0.00;;;;;;;-145.06;100.00;96413.59;10381987;28;20289;-80
2023/04/05 08:07:18;;;;;;;0.00;0.00;;;;;;;-145.06;100.00;96325.59;10380101;28;20021;-80
2023/04/05 08:12:19;;;;;;;0.00;0.00;;;;;;;-145.06;100.00;96305.13;10396945;28;20107;-79
2023/04/05 08:17:19;;;;;;;0.00;0.00;;;;;;;-145.06;100.00;96241.66;10380369;28;20417;-79
2023/04/05 08:22:20;;;;;;;0.00;0.00;;;;;;;-145.06;100.00;96239.63;10394573;28;20644;-79
2023/04/05 08:27:20;;;;;;;0.00;0.00;;;;;;;-145.06;100.00;96002.22;10363474;28;20358;-78
2023/04/05 08:32:20;;;;;;;0.00;0.00;;;;;;;-145.06;100.00;95380.09;10401756;28;20108;-79
2023/04/05 08:37:21;;;;;;;0.00;0.00;;;;;;;-145.06;100.00;95707.53;10395376;28;20018;-79
2023/04/05 08:42:32;;;;;;;0.00;0.00;;;;;;;-145.06;93.51;95230.72;10386961;28;20305;-81
2023/04/05 08:47:35;;;;;;;0.10;0.10;;;;;;;-145.06;90.33;95576.56;10391520;28;20021;-79
2023/04/05 08:52:37;;;;;;;0.10;0.10;;;;;;;-145.06;88.73;95421.03;10385188;28;20029;-81
2023/04/05 08:57:43;;;;;;;0.00;0.00;;;;;;;-145.06;81.20;95183.66;10383853;28;20021;-79
2023/04/05 09:02:49;;;;;;;0.10;0.10;;;;;;;-145.06;60.83;95093.63;10395550;28;20022;-80
2023/04/05 09:07:50;;;;;;;0.00;0.00;;;;;;;-145.06;57.30;95032.25;10382169;28;20052;-80
2023/04/05 09:12:51;;;;;;;0.10;0.10;;;;;;;-145.06;59.72;95042.50;10389400;28;20109;-80
2023/04/05 09:17:53;;;;;;;0.10;0.10;;;;;;;-145.06;46.40;94983.16;10358057;28;20018;-79
2023/04/05 09:22:55;;;;;;;0.10;0.10;;;;;;;-145.06;44.11;94903.34;10402139;28;20029;-80
2023/04/05 09:27:56;;;;;;;0.10;0.10;;;;;;;-145.06;39.10;94786.72;10388502;28;20099;-81
2023/04/05 09:32:56;;;;;;;0.10;0.10;;;;;;;-145.06;38.63;94788.78;10384083;28;20623;-81
2023/04/05 09:37:58;;;;;;;0.10;0.10;;;;;;;-145.06;39.63;94825.59;10378949;28;20022;-81
2023/04/05 09:42:59;;;;;;;0.10;0.10;;;;;;;-145.06;42.88;94932.00;10372926;28;20071;-81
2023/04/05 09:47:59;;;;;;;0.00;0.00;;;;;;;-145.06;42.03;94913.59;10389128;28;20028;-80
2023/04/05 09:53:14;;;;;;;0.10;0.10;;;;;;;-145.06;45.07;94960.66;10386200;28;20026;-80
2023/04/05 09:58:20;;;;;;;0.10;0.10;;;;;;;-145.06;44.67;94911.53;10386346;28;20057;-79
2023/04/05 10:03:23;;;;;;;0.10;0.10;;;;;;;-145.06;43.97;94940.19;10388871;28;20026;-81
2023/04/05 10:08:24;;;;;;;0.10;0.10;;;;;;;-145.06;43.27;94962.69;10379325;28;20025;-79
2023/04/05 10:13:25;;;;;;;0.10;0.10;;;;;;;-145.06;38.18;94876.75;10375772;28;20393;-81
2023/04/05 10:18:31;;;;;;;0.10;0.10;;;;;;;-145.06;40.65;94983.16;10391660;28;20026;-80
2023/04/05 10:23:33;;;;;;;0.00;0.00;;;;;;;-145.06;44.95;95054.75;10398534;28;20106;-80
2023/04/05 10:28:36;;;;;;;0.10;0.10;;;;;;;-145.06;44.38;95052.72;10379258;28;20030;-81
2023/04/05 10:33:46;;;;;;;0.10;0.10;;;;;;;-145.06;39.92;94950.41;10404713;28;20435;-80
2023/04/05 10:39:08;;;;;;;0.10;0.10;;;;;;;-145.06;41.84;94921.78;10362879;28;20054;-80
2023/04/05 10:44:10;;;;;;;0.10;0.10;;;;;;;-145.06;41.05;94841.97;10366915;28;20050;-80
2023/04/05 10:49:41;;;;;;;0.10;0.10;;;;;;;-145.06;40.87;94815.38;10366228;28;20165;-80
2023/04/05 10:54:43;;;;;;;0.10;0.10;;;;;;;-145.06;39.00;94721.25;10365837;28;20026;-79
2023/04/05 10:59:45;;;;;;;0.10;0.10;;;;;;;-145.06;40.75;95036.34;10393048;28;20024;-79
2023/04/05 11:04:45;;;;;;;0.10;0.10;;;;;;;-145.06;38.61;95089.56;10388749;28;20022;-81
2023/04/05 11:10:00;;;;;;;0.00;0.00;;;;;;;-145.06;41.88;95210.28;10383878;28;20025;-81
2023/04/05 11:15:28;;;;;;;0.10;0.10;;;;;;;-145.06;42.71;95187.75;10385474;28;20085;-80
2023/04/05 11:20:43;;;;;;;0.10;0.10;;;;;;;-145.06;42.09;95277.78;10376027;28;20058;-78
2023/04/05 11:25:54;;;;;;;0.05;0.05;;;;;;;-145.06;41.29;95306.44;10358028;28;20026;-78
2023/04/05 11:30:57;;;;;;;0.10;0.10;;;;;;;-145.06;43.75;95355.56;10376876;28;20026;-79
2023/04/05 11:36:01;;;;;;;0.05;0.05;;;;;;;-145.06;41.71;95322.81;10372708;28;20424;-78
2023/04/05 11:41:06;;;;;;;0.10;0.10;;;;;;;-145.06;43.25;95314.63;10375740;28;20366;-78
2023/04/05 11:46:06;;;;;;;0.05;0.05;;;;;;;-145.06;45.81;95294.16;10402634;28;20076;-78
2023/04/05 11:51:11;;;;;;;0.10;0.10;;;;;;;-145.06;42.31;95261.44;10388259;28;20018;-79
2023/04/05 11:56:14;;;;;;;0.10;0.10;;;;;;;-145.06;42.48;95245.06;10375488;28;20072;-78
2023/04/05 12:01:16;;;;;;;0.10;0.10;;;;;;;-145.06;42.61;95263.47;10407851;28;20092;-78
2023/04/05 12:06:21;;;;;;;0.10;0.10;;;;;;;-145.06;44.75;95326.91;10392307;28;20049;-79
2023/04/05 12:11:27;;;;;;;0.00;0.00;;;;;;;-145.06;45.69;95414.88;10375428;28;20022;-79
2023/04/05 12:16:28;;;;;;;0.00;0.00;;;;;;;-145.06;45.27;95408.75;10375617;28;20218;-78
2023/04/05 12:21:28;;;;;;;0.10;0.10;;;;;;;-145.06;43.61;95306.44;10392695;28;20044;-78
2023/04/05 12:26:33;;;;;;;0.00;0.00;;;;;;;-145.06;45.80;95224.59;10372777;28;20022;-80
2023/04/05 12:31:37;;;;;;;;;;;;;;;-145.06;42.86;95081.38;10388940;28;20280;-77
2023/04/05 12:36:37;;;;;;;;;;;;;;;-145.06;41.84;95157.06;10379295;28;19909;-78
2023/04/05 12:41:38;;;;;;;0.00;0.00;;;;;;;-145.06;41.14;95065.00;10378324;28;20353;-78
2023/04/05 12:46:42;;;;;;;0.10;0.10;;;;;;;-145.06;40.80;95136.59;10386598;28;20045;-77
2023/04/05 12:51:47;;;;;;;0.08;0.08;;;;;;;-145.06;42.15;95177.53;10377384;28;20070;-78
2023/04/05 12:56:51;;;;;;;0.00;0.00;;;;;;;-145.06;38.12;95060.91;10392966;28;20113;-78
2023/04/05 13:01:52;;;;;;;0.10;0.10;;;;;;;-145.06;37.45;95083.41;10392201;28;20030;-78
2023/04/05 13:06:53;;;;;;;0.03;0.03;;;;;;;-145.06;40.51;95167.31;10401038;28;20049;-79
2023/04/05 13:11:54;;;;;;;0.10;0.10;;;;;;;-145.06;39.24;95279.84;10388335;28;20088;-79
2023/04/05 13:16:55;;;;;;;0.10;0.10;;;;;;;-145.06;38.66;95376.00;10373951;28;20041;-78
2023/04/05 13:21:55;;;;;;;0.10;0.10;;;;;;;-145.06;39.82;95140.69;10380777;28;20044;-78
2023/04/05 13:26:55;;;;;;;0.10;0.10;;;;;;;-145.06;40.57;95093.63;10393437;28;20888;-79
2023/04/05 13:31:56;;;;;;;0.10;0.10;;;;;;;-145.06;39.65;95191.84;10386236;28;20033;-78
2023/04/05 13:36:56;;;;;;;0.00;0.00;;;;;;;-145.06;41.11;95236.88;10398895;28;20488;-79
2023/04/05 13:41:56;;;;;;;0.10;0.10;;;;;;;-145.06;39.37;95228.69;10387538;28;20065;-78
2023/04/05 13:46:57;;;;;;;0.10;0.10;;;;;;;-145.06;38.81;95257.34;10385640;23;20048;-82
2023/04/05 13:51:57;;;;;;;0.10;0.10;;;;;;;-145.06;41.81;95283.94;10363424;28;20105;-81
2023/04/05 13:56:57;;;;;;;0.10;0.10;;;;;;;-145.06;38.83;95212.31;10356267;28;20065;-81
2023/04/05 14:01:58;;;;;;;0.10;0.10;;;;;;;-145.06;40.38;95359.66;10358476;28;20105;-81
2023/04/05 14:06:58;;;;;;;0.10;0.10;;;;;;;-145.06;42.45;95433.31;10368789;28;20096;-81
2023/04/05 14:12:01;;;;;;;0.10;0.10;;;;;;;-145.06;42.15;95558.13;10353077;28;20029;-81
2023/04/05 14:17:01;;;;;;;0.10;0.10;;;;;;;-145.06;41.77;95621.56;10377119;28;20562;-81
2023/04/05 14:22:02;;;;;;;0.10;0.10;;;;;;;-145.06;40.47;95574.50;10394649;28;20017;-80
2023/04/05 14:27:02;;;;;;;0.10;0.10;;;;;;;-145.06;42.71;95603.16;10376565;28;20316;-81
2023/04/05 14:32:03;;;;;;;0.10;0.10;;;;;;;-145.06;45.74;95674.78;10377163;28;20265;-81
2023/04/05 14:37:05;;;;;;;0.10;0.10;;;;;;;-145.06;47.69;95697.28;10366887;28;20014;-81
2023/04/05 14:42:05;;;;;;;0.10;0.10;;;;;;;-145.06;45.79;95664.53;10374936;28;20040;-81
2023/04/05 14:47:06;;;;;;;0.10;0.10;;;;;;;-145.06;50.80;95734.13;10371030;28;20037;-81
2023/04/05 14:52:06;;;;;;;0.10;0.10;;;;;;;-145.06;53.21;95768.91;10372384;28;20026;-80
2023/04/05 14:57:06;;;;;;;0.10;0.10;;;;;;;-145.06;54.10;95691.16;10353025;28;20300;-81
2023/04/05 15:02:07;;;;;;;0.10;0.10;;;;;;;-145.06;54.64;95670.69;10379646;28;20018;-81
2023/04/05 15:07:07;;;;;;;0.10;0.10;;;;;;;-145.06;53.41;95642.03;10374239;28;20030;-82
2023/04/05 15:12:07;;;;;;;0.10;0.10;;;;;;;-145.06;54.81;95703.44;10366095;28;20282;-82
2023/04/05 15:17:08;;;;;;;0.10;0.10;;;;;;;-145.06;52.90;95646.13;10358679;28;20021;-82
2023/04/05 15:22:08;;;;;;;0.10;0.10;;;;;;;-145.06;54.61;95631.81;10367966;28;20264;-82
2023/04/05 15:27:10;;;;;;;0.10;0.10;;;;;;;-145.06;53.45;95674.78;10345444;28;20026;-82
2023/04/05 15:32:10;;;;;;;0.10;0.10;;;;;;;-145.06;53.29;95666.59;10364062;28;20030;-82
2023/04/05 15:37:10;;;;;;;0.10;0.10;;;;;;;-145.06;51.84;95607.25;10382178;28;20394;-83
2023/04/05 15:42:11;;;;;;;0.10;0.10;;;;;;;-145.06;51.83;95707.53;10336923;28;20037;-83
2023/04/05 15:47:11;;;;;;;0.10;0.10;;;;;;;-145.06;53.59;95658.41;10361439;28;20058;-82
2023/04/05 15:52:12;;;;;;;0.17;0.17;;;;;;;-145.06;54.04;95736.16;10354636;28;20034;-83
2023/04/05 15:57:12;;;;;;;0.10;0.10;;;;;;;-145.06;54.07;95719.81;10397118;28;20014;-84
2023/04/05 16:02:12;;;;;;;0.10;0.10;;;;;;;-145.06;57.80;95578.59;10382164;28;20061;-83
2023/04/05 16:07:13;;;;;;;0.10;0.10;;;;;;;-145.06;55.95;95558.13;10380508;28;20436;-83
2023/04/05 16:12:13;;;;;;;0.10;0.10;;;;;;;-145.06;57.30;95668.63;10382179;28;20026;-83
2023/04/05 16:17:14;;;;;;;0.00;0.00;;;;;;;-145.06;57.81;95627.72;10389508;28;20029;-83
2023/04/05 16:22:14;;;;;;;0.10;0.10;;;;;;;-145.06;54.43;95635.91;10382101;28;20026;-83
2023/04/05 16:27:15;;;;;;;0.00;0.00;;;;;;;-145.06;58.27;95674.78;10386279;28;20302;-83
2023/04/05 16:32:16;;;;;;;0.10;0.10;;;;;;;-145.06;61.55;95695.25;10389058;28;20029;-83
2023/04/05 16:37:16;;;;;;;0.10;0.10;;;;;;;-145.06;61.72;95822.13;10356390;28;20015;-82
2023/04/05 16:42:16;;;;;;;0.00;0.00;;;;;;;-145.06;62.56;95762.78;10380039;28;20034;-82
2023/04/05 16:47:17;;;;;;;0.10;0.10;;;;;;;-145.06;64.50;95883.53;10371095;28;20022;-83
2023/04/05 16:52:17;;;;;;;0.10;0.10;;;;;;;-145.06;64.56;96096.34;10352763;28;20026;-82
2023/04/05 16:57:18;;;;;;;0.00;0.00;;;;;;;-145.06;64.30;95957.19;10373790;28;20030;-82
2023/04/05 17:02:18;;;;;;;0.07;0.07;;;;;;;-145.06;66.43;96256.00;10357802;28;20029;-82
2023/04/05 17:07:19;;;;;;;0.10;0.10;;;;;;;-145.06;67.24;96859.81;10370539;28;20297;-82
2023/04/05 17:12:19;;;;;;;0.03;0.03;;;;;;;-145.06;69.19;96994.94;10385789;28;20033;-80
2023/04/05 17:17:20;;;;;;;0.10;0.10;;;;;;;-145.06;74.67;97312.22;10379635;28;20025;-80
2023/04/05 17:22:20;;;;;;;0.00;0.00;;;;;;;-145.06;80.88;97377.75;10375713;28;20025;-80
2023/04/05 17:27:20;;;;;;;0.05;0.05;;;;;;;-145.06;87.01;97435.06;10352539;28;20026;-80
2023/04/05 17:32:21;;;;;;;0.10;0.10;;;;;;;-145.06;95.69;97510.81;10391354;28;20036;-80
2023/04/05 17:37:21;;;;;;;0.00;0.00;;;;;;;-145.06;97.63;97557.91;10378642;28;20016;-79
2023/04/05 17:42:21;;;;;;;0.00;0.00;;;;;;;-145.06;100.00;97635.72;10382527;28;20034;-80
2023/04/05 17:47:22;;;;;;;0.00;0.00;;;;;;;-145.06;100.00;97645.94;10376221;28;20284;-79
2023/04/05 17:52:22;;;;;;;0.00;0.00;;;;;;;-145.06;100.00;97709.41;10354043;28;20025;-79
2023/04/05 17:57:22;;;;;;;0.03;0.03;;;;;;;-145.06;100.00;97721.69;10374222;28;20615;-80
2023/04/05 18:02:23;;;;;;;0.00;0.00;;;;;;;-145.06;100.00;97734.00;10382149;28;20472;-80
2023/04/05 18:07:23;;;;;;;0.00;0.00;;;;;;;-145.06;100.00;97736.03;10373896;28;20109;-80
2023/04/05 18:12:24;;;;;;;0.00;0.00;;;;;;;-145.06;100.00;97811.78;10397198;28;20068;-80
2023/04/05 18:17:24;;;;;;;0.00;0.00;;;;;;;-145.06;100.00;97842.50;10376921;28;20322;-80
2023/04/05 18:22:25;;;;;;;0.00;0.00;;;;;;;-145.06;100.00;97824.06;10370266;28;20025;-80
2023/04/05 18:27:26;;;;;;;0.00;0.00;;;;;;;-145.06;100.00;97836.38;10374052;28;20014;-80
2023/04/05 18:32:26;;;;;;;0.00;0.00;;;;;;;-145.06;100.00;97869.13;10352358;28;20021;-80
2023/04/05 18:37:26;;;;;;;0.00;0.00;;;;;;;-145.06;100.00;97891.66;10373085;28;20068;-79
2023/04/05 18:42:27;;;;;;;0.00;0.00;;;;;;;-145.06;100.00;97914.16;10381418;28;20266;-80
2023/04/05 18:47:27;;;;;;;0.00;0.00;;;;;;;-145.06;100.00;97951.03;10346151;28;20018;-80
2023/04/05 18:52:32;;;;;;;0.00;0.00;;;;;;;-145.06;100.00;97942.84;10382208;28;20033;-79
2023/04/05 18:57:33;;;;;;;0.00;0.00;;;;;;;-145.06;100.00;97987.88;10374077;28;20121;-79
2023/04/05 19:02:33;;;;;;;0.00;0.00;;;;;;;-145.06;100.00;98008.34;10354167;28;20108;-79
2023/04/05 19:07:33;;;;;;;0.00;0.00;;;;;;;-145.06;100.00;97989.94;10372003;28;20028;-79
2023/04/05 19:12:34;;;;;;;0.00;0.00;;;;;;;-145.06;100.00;98012.44;10373478;28;20026;-79
2023/04/05 19:17:34;;;;;;;0.00;0.00;;;;;;;-145.06;100.00;98018.59;10363302;28;20028;-80
2023/04/05 19:22:35;;;;;;;0.00;0.00;;;;;;;-145.06;100.00;98053.41;10379476;28;20166;-79
2023/04/05 19:27:35;;;;;;;0.00;0.00;;;;;;;-145.06;100.00;98059.53;10380215;28;20462;-80
2023/04/05 19:32:35;;;;;;;0.00;0.00;;;;;;;-145.06;100.00;98053.41;10376443;28;20366;-80
2023/04/05 19:37:36;;;;;;;0.00;0.00;;;;;;;-145.06;100.00;98051.34;10365078;28;20272;-79
2023/04/05 19:42:36;;;;;;;0.00;0.00;;;;;;;-145.06;100.00;98043.16;10354045;28;20493;-79
2023/04/05 19:47:44;;;;;;;0.00;0.00;;;;;;;-145.06;100.00;98008.34;10486731;23;20051;-79
2023/04/05 19:52:46;;;;;;;0.00;0.00;;;;;;;-145.06;100.00;98037.03;10498263;28;20282;-80
2023/04/05 19:57:47;;;;;;;0.00;0.00;;;;;;;-145.06;100.00;98000.16;10431389;28;20032;-79
2023/04/05 20:02:47;;;;;;;0.00;0.00;;;;;;;-145.06;100.00;98037.03;10454451;28;20035;-79
2023/04/05 20:07:47;;;;;;;0.00;0.00;;;;;;;-145.06;100.00;98065.69;10462535;28;20283;-81
2023/04/05 20:12:48;;;;;;;0.00;0.00;;;;;;;-145.06;100.00;98039.06;10450713;28;20040;-80
2023/04/05 20:17:49;;;;;;;0.00;0.00;;;;;;;-145.06;100.00;98092.31;10465004;28;20047;-79
2023/04/05 20:22:49;;;;;;;0.00;0.00;;;;;;;-145.06;100.00;98100.50;10475507;28;20055;-80
2023/04/05 20:27:50;;;;;;;0.00;0.00;;;;;;;-145.06;100.00;98100.50;10441574;28;20047;-80
2023/04/05 20:32:50;;;;;;;0.00;0.00;;;;;;;-145.06;100.00;98131.22;10465947;28;20029;-80
2023/04/05 20:37:51;;;;;;;0.00;0.00;;;;;;;-145.06;100.00;98163.97;10468210;28;20025;-81
2023/04/05 20:42:52;;;;;;;0.00;0.00;;;;;;;-145.06;100.00;98145.53;10472825;28;20028;-80
2023/04/05 20:47:52;;;;;;;0.00;0.00;;;;;;;-145.06;100.00;98174.22;10448237;28;20030;-80
2023/04/05 20:52:53;;;;;;;0.00;0.00;;;;;;;-145.06;100.00;98178.31;10453065;28;20268;-79
2023/04/05 20:57:53;;;;;;;0.00;0.00;;;;;;;-145.06;100.00;98303.22;10476743;28;20020;-79
2023/04/05 21:02:53;;;;;;;0.00;0.00;;;;;;;-145.06;100.00;98233.59;10466703;28;20296;-79
2023/04/05 21:07:54;;;;;;;0.00;0.00;;;;;;;-145.06;100.00;98237.69;10447651;28;20395;-79
2023/04/05 21:12:54;;;;;;;0.00;0.00;;;;;;;-145.06;100.00;98241.78;10474340;28;20743;-79
2023/04/05 21:17:55;;;;;;;0.00;0.00;;;;;;;-145.06;100.00;98286.84;10471116;28;20017;-79
2023/04/05 21:22:56;;;;;;;0.00;0.00;;;;;;;-145.06;100.00;98286.84;10460770;28;20478;-79
2023/04/05 21:27:58;;;;;;;0.00;0.00;;;;;;;-145.06;100.00;98270.47;10455833;28;20044;-81
2023/04/05 21:32:58;;;;;;;0.00;0.00;;;;;;;-145.06;100.00;98288.88;10446874;28;20120;-81
2023/04/05 21:37:59;;;;;;;0.00;0.00;;;;;;;-145.06;100.00;98262.25;10449272;28;20021;-81
2023/04/05 21:43:00;;;;;;;0.00;0.00;;;;;;;-145.06;100.00;98278.66;10464424;28;20267;-80
2023/04/05 21:48:00;;;;;;;0.00;0.00;;;;;;;-145.06;100.00;98356.47;10452216;28;20022;-79
2023/04/05 21:53:01;;;;;;;0.10;0.10;;;;;;;-145.06;100.00;98321.66;10450112;28;20479;-80
2023/04/05 21:58:01;;;;;;;0.00;0.00;;;;;;;-145.06;100.00;98352.38;10465561;28;20035;-80
2023/04/05 22:03:01;;;;;;;0.00;0.00;;;;;;;-145.06;100.00;98381.03;10463065;28;20115;-80
2023/04/05 22:08:02;;;;;;;0.00;0.00;;;;;;;-145.06;100.00;98303.22;10474381;28;20283;-80
2023/04/05 22:13:03;;;;;;;0.00;0.00;;;;;;;-145.06;100.00;98335.97;10454913;28;20143;-79
2023/04/05 22:18:04;;;;;;;0.00;0.00;;;;;;;-145.06;100.00;98348.28;10466104;28;20026;-80
2023/04/05 22:23:05;;;;;;;0.00;0.00;;;;;;;-145.06;100.00;98372.84;10453833;28;20755;-80
2023/04/05 22:28:05;;;;;;;0.08;0.08;;;;;;;-145.06;100.00;98350.31;10468221;28;20013;-81
2023/04/05 22:33:05;;;;;;;0.00;0.00;;;;;;;-145.06;100.00;98411.75;10464864;28;20028;-81
2023/04/05 22:38:06;;;;;;;0.00;0.00;;;;;;;-145.06;100.00;98303.22;10447801;28;20328;-80
2023/04/05 22:43:06;;;;;;;0.00;0.00;;;;;;;-145.06;100.00;98301.16;10461609;28;20268;-80